Date,TemperatureHighF,TemperatureAvgF,TemperatureLowF,DewpointHighF,DewpointAvgF,DewpointLowF,HumidityHigh,HumidityAvg,HumidityLow,PressureMaxIn,PressureMinIn,WindSpeedMaxMPH,WindSpeedAvgMPH,GustSpeedMaxMPH,PrecipitationSumIn
2013-12-1,72,59,52,46,42,33,70,54,24,30.13,30.02,9,0,9,0.00
2013-12-2,72,58,48,43,36,28,69,45,22,30.07,29.84,7,0,9,0.00
2013-12-3,72,60,51,41,34,15,53,39,12,29.85,29.64,18,3,19,0.00
2013-12-4,65,56,45,46,40,30,92,58,31,29.82,29.61,28,6,28,0.35
2013-12-5,47,43,37,43,34,22,92,73,50,30.08,29.79,12,2,12,0.14
2013-12-6,51,40,33,27,23,16,69,52,30,30.19,30.08,7,1,7,0.00
2013-12-7,54,43,34,32,23,8,68,48,16,30.10,29.98,20,4,21,0.00
2013-12-8,51,46,41,39,34,26,75,64,54,30.09,29.98,23,5,23,0.00
2013-12-9,51,42,36,29,21,13,64,44,24,30.29,30.05,9,1,9,0.00
2013-12-10,57,43,32,23,17,8,59,37,15,30.26,30.11,5,0,8,0.00
2013-12-11,68,54,42,35,26,13,50,34,22,30.18,30.08,10,1,10,0.00
2013-12-12,69,55,45,39,34,29,60,46,30,30.10,29.97,15,1,18,0.00
2013-12-13,60,50,41,32,29,26,63,46,32,30.14,30.02,13,1,13,0.00
2013-12-14,61,50,42,28,24,18,56,37,23,30.25,30.13,22,2,22,0.00
2013-12-15,66,53,40,27,23,17,54,31,16,30.26,30.13,8,1,8,0.00
2013-12-16,73,59,46,31,25,20,40,28,17,30.17,30.08,4,0,4,0.00
2013-12-17,79,64,51,32,25,20,35,24,11,30.15,29.98,7,0,7,0.00
2013-12-18,76,64,54,32,25,20,31,23,14,29.98,29.73,9,0,9,0.00
2013-12-19,67,60,49,42,27,21,75,30,17,29.75,29.57,27,9,27,0.00
2013-12-20,52,45,41,43,40,38,91,81,65,29.80,29.53,21,3,21,0.63
2013-12-21,49,45,42,40,38,32,93,78,62,30.04,29.79,15,4,15,0.02
2013-12-22,56,46,40,40,36,32,84,68,46,30.26,30.04,8,1,8,0.00
2013-12-23,61,49,38,36,31,25,75,53,28,30.33,30.21,6,0,6,0.00
2013-12-24,65,52,39,28,24,18,59,35,18,30.20,30.07,10,1,10,0.00
2013-12-25,64,53,44,31,26,20,48,35,25,30.19,30.09,25,1,25,0.00
2013-12-26,64,52,38,30,26,16,62,37,21,30.16,30.06,4,0,6,0.00
2013-12-27,66,53,36,30,23,16,66,32,17,30.17,30.06,7,0,7,0.00
2013-12-28,62,52,42,26,21,16,40,29,19,30.08,29.90,7,0,7,0.00
2013-12-29,64,54,46,33,27,22,50,37,21,30.08,29.89,12,1,12,0.00
2013-12-30,66,52,43,31,26,22,49,37,20,30.22,30.08,16,0,16,0.00
2013-12-31,69,56,46,23,19,14,35,24,13,30.19,30.03,7,0,7,0.00